Time;durP1;ratioP1;P1;durP2;ratioP2;P2;SDS_P1;SDS_P2;PMS_P1;PMS_P2;Temp;Humidity;BMP_temperature;BMP_pressure;BME280_temperature;BME280_humidity;BME280_pressure;Samples;Min_cycle;Max_cycle;Signal;HPM_P1;HPM_P2
2023/09/03 00:01:55;;;;;;;57.13;2.90;;;;;;;;;;5074046;28;20447;-68
2023/09/03 00:04:22;;;;;;;57.57;3.40;;;;;;;;;;5074235;28;20473;-69
2023/09/03 00:06:49;;;;;;;57.93;2.60;;;;;;;;;;5074101;28;20473;-68
2023/09/03 00:09:18;;;;;;;56.90;2.50;;;;;;;;;;5073896;28;20447;-68
2023/09/03 00:11:45;;;;;;;57.20;2.93;;;;;;;;;;5073551;28;20447;-69
2023/09/03 00:14:12;;;;;;;56.73;2.53;;;;;;;;;;5073998;28;21010;-69
2023/09/03 00:16:39;;;;;;;56.57;2.40;;;;;;;;;;5074019;28;20454;-68
2023/09/03 00:19:07;;;;;;;59.20;2.70;;;;;;;;;;5073930;28;20445;-70
2023/09/03 00:21:34;;;;;;;57.13;2.83;;;;;;;;;;5073882;28;20822;-69
2023/09/03 00:24:01;;;;;;;57.90;3.00;;;;;;;;;;5073645;28;20439;-69
2023/09/03 00:26:29;;;;;;;57.43;2.80;;;;;;;;;;5073527;28;20451;-68
2023/09/03 00:28:56;;;;;;;56.77;2.37;;;;;;;;;;5073734;28;20475;-71
2023/09/03 00:31:25;;;;;;;56.87;2.50;;;;;;;;;;5073726;28;20469;-69
2023/09/03 00:33:52;;;;;;;57.77;3.80;;;;;;;;;;5073366;28;20483;-71
2023/09/03 00:36:21;;;;;;;57.30;3.10;;;;;;;;;;5073375;28;20459;-69
2023/09/03 00:38:49;;;;;;;56.83;2.70;;;;;;;;;;5073902;28;20452;-70
2023/09/03 00:41:16;;;;;;;57.13;2.77;;;;;;;;;;5073602;28;20439;-68
2023/09/03 00:43:43;;;;;;;57.50;3.33;;;;;;;;;;5073416;28;20465;-69
2023/09/03 00:46:10;;;;;;;57.00;2.50;;;;;;;;;;5073318;28;20469;-71
2023/09/03 00:48:39;;;;;;;57.93;3.07;;;;;;;;;;5073251;28;20908;-68
2023/09/03 00:51:07;;;;;;;56.80;2.50;;;;;;;;;;5073179;28;20443;-68
2023/09/03 00:53:36;;;;;;;57.17;3.00;;;;;;;;;;5072795;28;20866;-68
2023/09/03 00:56:04;;;;;;;56.87;2.77;;;;;;;;;;5073002;28;20558;-68
2023/09/03 00:58:31;;;;;;;56.97;2.97;;;;;;;;;;5073217;28;20830;-69
2023/09/03 01:00:58;;;;;;;56.87;2.60;;;;;;;;;;5073011;28;20451;-69
2023/09/03 01:03:26;;;;;;;56.97;2.97;;;;;;;;;;5071747;28;20822;-68
2023/09/03 01:05:53;;;;;;;56.83;2.70;;;;;;;;;;5072772;28;20468;-69
2023/09/03 01:08:21;;;;;;;58.17;3.63;;;;;;;;;;5072888;28;20470;-68
2023/09/03 01:10:53;;;;;;;57.37;2.80;;;;;;;;;;5072970;28;20469;-68
2023/09/03 01:13:25;;;;;;;56.77;2.50;;;;;;;;;;5072622;28;20485;-68
2023/09/03 01:15:54;;;;;;;57.73;4.20;;;;;;;;;;5072797;28;20910;-68
2023/09/03 01:18:24;;;;;;;57.00;2.70;;;;;;;;;;5072751;28;20449;-69
2023/09/03 01:20:58;;;;;;;57.00;2.87;;;;;;;;;;5072986;28;20443;-68
2023/09/03 01:23:34;;;;;;;57.20;2.83;;;;;;;;;;5071243;28;20470;-68
2023/09/03 01:26:19;;;;;;;56.87;2.67;;;;;;;;;;5072459;28;20459;-68
2023/09/03 01:28:48;;;;;;;56.80;2.77;;;;;;;;;;5065099;28;20450;-69
2023/09/03 01:31:17;;;;;;;56.77;2.60;;;;;;;;;;5072358;28;20536;-68
2023/09/03 01:33:47;;;;;;;57.67;2.87;;;;;;;;;;5065218;28;20487;-70
2023/09/03 01:36:14;;;;;;;56.80;2.67;;;;;;;;;;5072443;28;20471;-68
2023/09/03 01:38:42;;;;;;;56.47;2.30;;;;;;;;;;5072293;28;20454;-68
2023/09/03 01:41:09;;;;;;;56.80;2.73;;;;;;;;;;5065735;28;20454;-69
2023/09/03 01:43:36;;;;;;;57.40;2.43;;;;;;;;;;5072047;28;20856;-70
2023/09/03 01:46:08;;;;;;;56.80;2.30;;;;;;;;;;5071991;28;20468;-68
2023/09/03 01:48:43;;;;;;;57.17;2.53;;;;;;;;;;5072275;28;20459;-71
2023/09/03 01:51:14;;;;;;;56.50;2.50;;;;;;;;;;5072169;28;20534;-71
2023/09/03 01:53:44;;;;;;;56.60;2.40;;;;;;;;;;5071893;28;20558;-69
2023/09/03 01:56:13;;;;;;;56.67;2.53;;;;;;;;;;5071863;28;20978;-69
2023/09/03 01:58:42;;;;;;;57.00;2.83;;;;;;;;;;5072056;28;20499;-71
2023/09/03 02:01:10;;;;;;;56.87;2.57;;;;;;;;;;5072166;28;20446;-68
2023/09/03 02:03:38;;;;;;;57.43;2.80;;;;;;;;;;5071662;28;20439;-68
2023/09/03 02:06:07;;;;;;;56.60;2.67;;;;;;;;;;5071593;28;20472;-68
2023/09/03 02:08:34;;;;;;;56.77;2.30;;;;;;;;;;5072176;28;20440;-68
2023/09/03 02:11:01;;;;;;;57.07;2.60;;;;;;;;;;5071595;28;20454;-68
2023/09/03 02:13:28;;;;;;;57.10;2.90;;;;;;;;;;5071315;28;20490;-68
2023/09/03 02:15:56;;;;;;;57.50;2.90;;;;;;;;;;5071338;28;20474;-68
2023/09/03 02:18:24;;;;;;;56.80;2.60;;;;;;;;;;5071430;28;20455;-70
2023/09/03 02:20:51;;;;;;;56.67;2.47;;;;;;;;;;5071777;28;20447;-68
2023/09/03 02:23:18;;;;;;;56.77;2.63;;;;;;;;;;5071380;28;20443;-67
2023/09/03 02:25:46;;;;;;;56.80;2.70;;;;;;;;;;5071412;28;20467;-69
2023/09/03 02:28:13;;;;;;;56.90;2.73;;;;;;;;;;5071557;28;20497;-68
2023/09/03 02:30:40;;;;;;;57.10;2.50;;;;;;;;;;5071321;28;20936;-68
2023/09/03 02:33:07;;;;;;;56.87;2.47;;;;;;;;;;5070941;28;20485;-68
2023/09/03 02:35:35;;;;;;;56.77;2.40;;;;;;;;;;5071211;28;21054;-68
2023/09/03 02:38:02;;;;;;;57.00;3.00;;;;;;;;;;5071202;28;20542;-68
2023/09/03 02:40:30;;;;;;;57.33;3.27;;;;;;;;;;5071401;28;20451;-69
2023/09/03 02:42:57;;;;;;;56.57;2.27;;;;;;;;;;5070950;28;20439;-68
2023/09/03 02:45:24;;;;;;;57.07;2.57;;;;;;;;;;5071106;28;21072;-69
2023/09/03 02:47:51;;;;;;;56.67;2.43;;;;;;;;;;5071448;28;20447;-68
2023/09/03 02:50:18;;;;;;;56.57;2.23;;;;;;;;;;5071296;28;20446;-68
2023/09/03 02:52:46;;;;;;;58.40;2.60;;;;;;;;;;5070724;28;20828;-68
2023/09/03 02:55:14;;;;;;;57.30;3.00;;;;;;;;;;5070991;28;20470;-68
2023/09/03 02:57:41;;;;;;;56.87;2.63;;;;;;;;;;5071019;28;20454;-69
2023/09/03 03:00:09;;;;;;;56.77;2.57;;;;;;;;;;5070968;28;20447;-68
2023/09/03 03:02:36;;;;;;;56.97;2.70;;;;;;;;;;5070933;28;20839;-70
2023/09/03 03:05:04;;;;;;;56.80;2.93;;;;;;;;;;5070918;28;20548;-68
2023/09/03 03:07:31;;;;;;;58.17;3.23;;;;;;;;;;5070703;28;20443;-68
2023/09/03 03:10:00;;;;;;;56.80;2.70;;;;;;;;;;5070928;28;20493;-69
2023/09/03 03:12:27;;;;;;;56.90;2.90;;;;;;;;;;5070683;28;20455;-68
2023/09/03 03:14:54;;;;;;;56.67;2.50;;;;;;;;;;5070877;28;20491;-68
2023/09/03 03:17:21;;;;;;;56.67;2.40;;;;;;;;;;5070960;28;20458;-69
2023/09/03 03:19:50;;;;;;;59.20;2.73;;;;;;;;;;5070940;28;20616;-68
2023/09/03 03:22:17;;;;;;;56.37;2.40;;;;;;;;;;5065097;28;20452;-68
2023/09/03 03:24:44;;;;;;;57.17;2.80;;;;;;;;;;5070915;28;20966;-68
2023/09/03 03:27:13;;;;;;;57.20;2.70;;;;;;;;;;5074602;28;20450;-70
2023/09/03 03:29:40;;;;;;;56.67;2.43;;;;;;;;;;5055154;28;20530;-69
2023/09/03 03:32:07;;;;;;;56.90;3.03;;;;;;;;;;5070239;28;20465;-70
2023/09/03 03:34:35;;;;;;;56.53;2.43;;;;;;;;;;5074654;28;20486;-68
2023/09/03 03:37:02;;;;;;;56.50;2.40;;;;;;;;;;5074573;28;20469;-69
2023/09/03 03:39:29;;;;;;;56.60;2.60;;;;;;;;;;5074656;28;20447;-69
2023/09/03 03:41:56;;;;;;;57.37;2.97;;;;;;;;;;5062369;28;20446;-68
2023/09/03 03:44:24;;;;;;;57.80;3.23;;;;;;;;;;5074538;28;20558;-69
2023/09/03 03:46:51;;;;;;;56.97;2.50;;;;;;;;;;5074506;28;20522;-70
2023/09/03 03:49:18;;;;;;;57.10;3.37;;;;;;;;;;5074483;28;20439;-69
2023/09/03 03:51:46;;;;;;;57.87;3.20;;;;;;;;;;5074163;28;20466;-69
2023/09/03 03:54:13;;;;;;;57.10;2.83;;;;;;;;;;5074105;28;20489;-68
2023/09/03 03:56:40;;;;;;;57.10;2.73;;;;;;;;;;5074412;28;20889;-69
2023/09/03 03:59:07;;;;;;;57.10;2.60;;;;;;;;;;5074384;28;20451;-69
2023/09/03 04:01:35;;;;;;;56.87;2.80;;;;;;;;;;5074045;28;20439;-68
2023/09/03 04:04:02;;;;;;;56.77;2.50;;;;;;;;;;5074092;28;20526;-69
2023/09/03 04:06:32;;;;;;;56.80;2.50;;;;;;;;;;5074230;28;20439;-68
2023/09/03 04:08:59;;;;;;;56.73;2.40;;;;;;;;;;5073886;28;20452;-68
2023/09/03 04:11:26;;;;;;;56.90;2.80;;;;;;;;;;5074107;28;20524;-69
2023/09/03 04:13:53;;;;;;;56.57;2.50;;;;;;;;;;5073673;28;20561;-68
2023/09/03 04:16:21;;;;;;;56.83;2.70;;;;;;;;;;5073742;28;21013;-68
2023/09/03 04:18:50;;;;;;;57.40;2.50;;;;;;;;;;5073911;28;20474;-69
2023/09/03 04:21:17;;;;;;;56.77;2.57;;;;;;;;;;5073542;28;20447;-69
2023/09/03 04:23:44;;;;;;;56.97;2.80;;;;;;;;;;5073874;28;20435;-68
2023/09/03 04:26:11;;;;;;;56.80;2.80;;;;;;;;;;5073756;28;20474;-68
2023/09/03 04:28:39;;;;;;;56.70;2.70;;;;;;;;;;5073624;28;21008;-70
2023/09/03 04:31:08;;;;;;;56.87;2.40;;;;;;;;;;5073693;28;20446;-68
2023/09/03 04:33:35;;;;;;;56.77;2.40;;;;;;;;;;5069407;28;20497;-69
2023/09/03 04:36:04;;;;;;;57.67;3.07;;;;;;;;;;5069343;28;20463;-71
2023/09/03 04:38:31;;;;;;;56.80;2.50;;;;;;;;;;5073519;28;20451;-68
2023/09/03 04:41:03;;;;;;;56.77;2.40;;;;;;;;;;5069355;28;20447;-69
2023/09/03 04:43:30;;;;;;;56.90;2.53;;;;;;;;;;5073153;28;20455;-69
2023/09/03 04:45:57;;;;;;;56.90;2.63;;;;;;;;;;5073242;28;20467;-68
2023/09/03 04:48:24;;;;;;;56.47;2.30;;;;;;;;;;5069747;28;20451;-68
2023/09/03 04:50:51;;;;;;;56.67;2.57;;;;;;;;;;5073448;28;20444;-68
2023/09/03 04:53:20;;;;;;;56.97;3.13;;;;;;;;;;5072880;28;20447;-68
2023/09/03 04:55:47;;;;;;;56.77;2.50;;;;;;;;;;5073191;28;20495;-68
2023/09/03 04:58:14;;;;;;;57.00;2.67;;;;;;;;;;5073304;28;20457;-68
2023/09/03 05:00:41;;;;;;;57.00;2.93;;;;;;;;;;5073095;28;20455;-68
2023/09/03 05:03:08;;;;;;;57.67;3.90;;;;;;;;;;5072662;28;20530;-69
2023/09/03 05:05:40;;;;;;;57.67;2.87;;;;;;;;;;5073036;28;20459;-69
2023/09/03 05:08:08;;;;;;;57.77;2.70;;;;;;;;;;5073125;28;20796;-69
2023/09/03 05:10:36;;;;;;;56.97;3.13;;;;;;;;;;5072954;28;20884;-69
2023/09/03 05:13:04;;;;;;;56.87;2.40;;;;;;;;;;5072618;28;20456;-69
2023/09/03 05:15:31;;;;;;;57.07;2.60;;;;;;;;;;5072497;28;20495;-69
2023/09/03 05:17:58;;;;;;;57.07;2.40;;;;;;;;;;5072666;28;20449;-69
2023/09/03 05:20:25;;;;;;;57.10;2.90;;;;;;;;;;5072846;28;20821;-69
2023/09/03 05:22:52;;;;;;;59.83;4.70;;;;;;;;;;5065335;28;20462;-68
2023/09/03 05:25:21;;;;;;;56.80;2.53;;;;;;;;;;5072400;28;20459;-66
2023/09/03 05:27:49;;;;;;;56.63;2.83;;;;;;;;;;5072629;28;20490;-67
2023/09/03 05:30:16;;;;;;;56.77;2.40;;;;;;;;;;5072488;28;20446;-69
2023/09/03 05:32:43;;;;;;;56.70;2.90;;;;;;;;;;5072142;28;20950;-67
2023/09/03 05:35:10;;;;;;;56.60;2.40;;;;;;;;;;5072272;28;20490;-68
2023/09/03 05:37:37;;;;;;;56.47;2.40;;;;;;;;;;5072273;28;20465;-67
2023/09/03 05:40:05;;;;;;;56.47;2.20;;;;;;;;;;5072284;28;20443;-68
2023/09/03 05:42:32;;;;;;;56.33;2.40;;;;;;;;;;5071996;28;20444;-67
2023/09/03 05:45:01;;;;;;;56.50;2.30;;;;;;;;;;5072414;28;20463;-67
2023/09/03 05:47:28;;;;;;;56.60;2.67;;;;;;;;;;5071913;28;20455;-67
2023/09/03 05:49:56;;;;;;;57.23;2.50;;;;;;;;;;5071947;28;20446;-68
2023/09/03 05:52:24;;;;;;;56.47;2.30;;;;;;;;;;5072039;28;20447;-67
2023/09/03 05:54:51;;;;;;;56.57;2.47;;;;;;;;;;5072097;28;20493;-68
2023/09/03 05:57:18;;;;;;;57.70;2.47;;;;;;;;;;5071708;28;20455;-67
2023/09/03 05:59:49;;;;;;;56.87;2.63;;;;;;;;;;5072043;28;20535;-67
2023/09/03 06:02:18;;;;;;;58.00;3.00;;;;;;;;;;5071682;28;20458;-67
2023/09/03 06:04:45;;;;;;;56.70;2.20;;;;;;;;;;5071850;28;20565;-69
2023/09/03 06:07:13;;;;;;;56.47;2.20;;;;;;;;;;5071688;28;20445;-68
2023/09/03 06:09:40;;;;;;;56.90;2.83;;;;;;;;;;5071614;28;20458;-68
2023/09/03 06:12:07;;;;;;;56.10;2.37;;;;;;;;;;5071350;28;20444;-67
2023/09/03 06:14:34;;;;;;;56.30;2.30;;;;;;;;;;5071425;28;20501;-68
2023/09/03 06:17:03;;;;;;;56.67;2.80;;;;;;;;;;5071556;28;20470;-70
2023/09/03 06:19:32;;;;;;;57.13;2.53;;;;;;;;;;5071481;28;20451;-67
2023/09/03 06:21:59;;;;;;;57.10;2.60;;;;;;;;;;5071338;28;20533;-67
2023/09/03 06:24:26;;;;;;;57.20;3.13;;;;;;;;;;5071405;28;20459;-68
2023/09/03 06:26:53;;;;;;;57.63;3.00;;;;;;;;;;5071702;28;20530;-67
2023/09/03 06:29:20;;;;;;;56.70;2.60;;;;;;;;;;5071613;28;20530;-67
2023/09/03 06:31:47;;;;;;;56.50;2.43;;;;;;;;;;5071246;28;20727;-67
2023/09/03 06:34:15;;;;;;;56.37;2.00;;;;;;;;;;5071161;28;21073;-69
2023/09/03 06:36:43;;;;;;;56.70;2.80;;;;;;;;;;5070998;28;20451;-67
2023/09/03 06:39:10;;;;;;;56.73;2.47;;;;;;;;;;5071498;28;20766;-68
2023/09/03 06:41:37;;;;;;;56.23;2.50;;;;;;;;;;5071422;28;20446;-67
2023/09/03 06:44:05;;;;;;;58.10;2.60;;;;;;;;;;5071175;28;20446;-68
2023/09/03 06:46:32;;;;;;;56.50;2.37;;;;;;;;;;5071556;28;20454;-68
2023/09/03 06:48:59;;;;;;;56.37;2.30;;;;;;;;;;5071166;28;20440;-67
2023/09/03 06:51:26;;;;;;;56.33;2.47;;;;;;;;;;5071019;28;20802;-68
2023/09/03 06:53:55;;;;;;;56.97;2.60;;;;;;;;;;5070979;28;20466;-68
2023/09/03 06:56:22;;;;;;;56.60;2.60;;;;;;;;;;5070923;28;20495;-68
2023/09/03 06:58:49;;;;;;;56.90;2.83;;;;;;;;;;5070845;28;20952;-69
2023/09/03 07:01:17;;;;;;;56.30;2.40;;;;;;;;;;5070189;28;20463;-68
2023/09/03 07:03:44;;;;;;;56.67;2.63;;;;;;;;;;5070738;28;20446;-67
2023/09/03 07:06:11;;;;;;;56.43;2.40;;;;;;;;;;5070893;28;20462;-67
2023/09/03 07:08:38;;;;;;;56.77;2.43;;;;;;;;;;5070836;28;20443;-67
2023/09/03 07:11:07;;;;;;;57.80;3.03;;;;;;;;;;5071158;28;20833;-70
2023/09/03 07:13:34;;;;;;;56.30;2.30;;;;;;;;;;5070423;28;20449;-67
2023/09/03 07:16:04;;;;;;;56.83;3.20;;;;;;;;;;5070645;28;20490;-70
2023/09/03 07:18:31;;;;;;;56.70;2.40;;;;;;;;;;5070602;28;20854;-68
2023/09/03 07:21:03;;;;;;;56.60;2.10;;;;;;;;;;5070974;28;20435;-68
2023/09/03 07:23:30;;;;;;;56.67;2.60;;;;;;;;;;5065379;28;20886;-70
2023/09/03 07:26:02;;;;;;;56.47;2.43;;;;;;;;;;5066345;28;20458;-67
2023/09/03 07:28:30;;;;;;;56.77;2.30;;;;;;;;;;5070627;28;20838;-67
2023/09/03 07:30:57;;;;;;;56.07;2.20;;;;;;;;;;5066707;28;20443;-70
2023/09/03 07:33:24;;;;;;;58.10;3.60;;;;;;;;;;5070566;28;20442;-68
2023/09/03 07:35:51;;;;;;;56.17;2.13;;;;;;;;;;5070651;28;20501;-70
2023/09/03 07:38:19;;;;;;;56.37;2.40;;;;;;;;;;5070531;28;20956;-67
2023/09/03 07:40:46;;;;;;;56.37;2.00;;;;;;;;;;5070245;28;20967;-70
2023/09/03 07:43:13;;;;;;;56.60;2.30;;;;;;;;;;5066660;28;20440;-67
2023/09/03 07:45:42;;;;;;;56.50;2.47;;;;;;;;;;5050250;28;20472;-68
2023/09/03 07:48:09;;;;;;;56.07;2.00;;;;;;;;;;5050733;28;20823;-68
2023/09/03 07:50:38;;;;;;;56.37;2.10;;;;;;;;;;5050645;28;20444;-71
2023/09/03 07:53:05;;;;;;;56.47;2.27;;;;;;;;;;5050236;28;20444;-68
2023/09/03 07:55:33;;;;;;;57.20;3.57;;;;;;;;;;5050163;28;20484;-68
2023/09/03 07:58:00;;;;;;;56.40;2.20;;;;;;;;;;5050328;28;20531;-68
2023/09/03 08:00:27;;;;;;;57.17;2.83;;;;;;;;;;5050723;28;20451;-69
2023/09/03 08:02:55;;;;;;;57.07;2.57;;;;;;;;;;5050059;28;20444;-71
2023/09/03 08:05:23;;;;;;;56.57;2.30;;;;;;;;;;5050387;28;20469;-69
2023/09/03 08:07:50;;;;;;;55.97;1.90;;;;;;;;;;5050475;28;20440;-71
2023/09/03 08:10:17;;;;;;;56.57;2.60;;;;;;;;;;5050306;28;20459;-68
2023/09/03 08:12:45;;;;;;;56.57;2.80;;;;;;;;;;5053012;28;20448;-68
2023/09/03 08:15:13;;;;;;;55.83;1.90;;;;;;;;;;5053851;28;20491;-67
2023/09/03 08:17:40;;;;;;;57.30;2.40;;;;;;;;;;5054158;28;20815;-66
2023/09/03 08:20:09;;;;;;;56.83;2.80;;;;;;;;;;5053991;28;20448;-67
2023/09/03 08:22:37;;;;;;;57.00;2.30;;;;;;;;;;5053535;28;20444;-66
2023/09/03 08:25:04;;;;;;;55.77;2.10;;;;;;;;;;5053707;28;20869;-66
2023/09/03 08:27:31;;;;;;;56.70;2.13;;;;;;;;;;5054033;28;20448;-68
2023/09/03 08:29:58;;;;;;;57.37;3.17;;;;;;;;;;5053638;28;20539;-67
2023/09/03 08:32:26;;;;;;;57.40;2.73;;;;;;;;;;5053513;28;20463;-67
2023/09/03 08:34:53;;;;;;;59.27;3.57;;;;;;;;;;5053536;28;20492;-67
2023/09/03 08:37:26;;;;;;;56.87;2.73;;;;;;;;;;5053437;28;20464;-67
2023/09/03 08:39:53;;;;;;;56.33;2.57;;;;;;;;;;5053548;28;20806;-67
2023/09/03 08:42:20;;;;;;;56.70;2.20;;;;;;;;;;5053352;28;20448;-67
2023/09/03 08:44:49;;;;;;;56.40;2.20;;;;;;;;;;5053453;28;20494;-67
2023/09/03 08:47:18;;;;;;;56.80;2.30;;;;;;;;;;5053539;28;20455;-68
2023/09/03 08:49:46;;;;;;;56.43;2.47;;;;;;;;;;5053242;28;20821;-67
2023/09/03 08:52:13;;;;;;;58.30;3.00;;;;;;;;;;5052790;28;20452;-67
2023/09/03 08:54:42;;;;;;;57.50;2.43;;;;;;;;;;5053356;28;20464;-68
2023/09/03 08:57:09;;;;;;;56.60;1.90;;;;;;;;;;5052982;28;20948;-68
2023/09/03 08:59:36;;;;;;;56.10;2.00;;;;;;;;;;5053139;28;20444;-68
2023/09/03 09:02:03;;;;;;;57.67;2.97;;;;;;;;;;5053032;28;20444;-68
2023/09/03 09:04:31;;;;;;;56.30;1.80;;;;;;;;;;5053042;28;20460;-68
2023/09/03 09:06:58;;;;;;;56.83;2.27;;;;;;;;;;5053147;28;20436;-68
2023/09/03 09:09:26;;;;;;;56.50;2.40;;;;;;;;;;5053242;28;20448;-68
2023/09/03 09:11:59;;;;;;;56.70;2.30;;;;;;;;;;5053084;28;20832;-68
2023/09/03 09:14:29;;;;;;;55.83;2.00;;;;;;;;;;5053384;28;21006;-69
2023/09/03 09:16:56;;;;;;;56.80;2.30;;;;;;;;;;5052864;28;21008;-68
2023/09/03 09:19:23;;;;;;;56.63;2.30;;;;;;;;;;5052651;28;20449;-68
2023/09/03 09:21:51;;;;;;;56.10;2.00;;;;;;;;;;5052191;28;20536;-69
2023/09/03 09:24:18;;;;;;;56.27;1.97;;;;;;;;;;5066939;28;20529;-68
2023/09/03 09:26:45;;;;;;;55.97;1.90;;;;;;;;;;5072642;28;20440;-69
2023/09/03 09:29:13;;;;;;;56.10;2.30;;;;;;;;;;5072587;28;20444;-68
2023/09/03 09:31:40;;;;;;;56.30;2.23;;;;;;;;;;5072500;28;20537;-71
2023/09/03 09:34:12;;;;;;;56.47;2.10;;;;;;;;;;5072627;28;20538;-68
2023/09/03 09:36:39;;;;;;;55.80;1.93;;;;;;;;;;5072431;28;20542;-68
2023/09/03 09:39:06;;;;;;;57.27;3.03;;;;;;;;;;5072584;28;20530;-68
2023/09/03 09:41:37;;;;;;;56.77;2.80;;;;;;;;;;5072259;28;20454;-69
2023/09/03 09:44:08;;;;;;;56.40;2.53;;;;;;;;;;5072504;28;20454;-69
2023/09/03 09:46:37;;;;;;;56.20;1.97;;;;;;;;;;5072120;28;20972;-69
2023/09/03 09:49:04;;;;;;;56.07;2.00;;;;;;;;;;5072070;28;20451;-69
2023/09/03 09:51:32;;;;;;;57.03;2.77;;;;;;;;;;5072165;28;20443;-68
2023/09/03 09:53:59;;;;;;;56.40;2.10;;;;;;;;;;5072287;28;20443;-68
2023/09/03 09:56:27;;;;;;;56.30;1.80;;;;;;;;;;5071802;28;20487;-69
2023/09/03 09:58:54;;;;;;;56.13;2.10;;;;;;;;;;5071808;28;20444;-69
2023/09/03 10:01:23;;;;;;;56.27;1.90;;;;;;;;;;5072207;28;20451;-68
2023/09/03 10:03:51;;;;;;;56.70;2.27;;;;;;;;;;5070390;28;21010;-68
2023/09/03 10:06:19;;;;;;;56.80;2.07;;;;;;;;;;5070443;28;20491;-70
2023/09/03 10:08:46;;;;;;;55.87;1.70;;;;;;;;;;5071903;28;20834;-69
2023/09/03 10:11:13;;;;;;;55.83;1.70;;;;;;;;;;5071659;28;20829;-72
2023/09/03 10:13:42;;;;;;;56.50;2.10;;;;;;;;;;5071351;28;20440;-68
2023/09/03 10:16:10;;;;;;;55.70;1.70;;;;;;;;;;5059769;28;20492;-68
2023/09/03 10:18:40;;;;;;;55.90;2.33;;;;;;;;;;5051610;28;20944;-68
2023/09/03 10:21:09;;;;;;;55.67;1.80;;;;;;;;;;5051675;28;20444;-68
2023/09/03 10:23:48;;;;;;;56.07;2.47;;;;;;;;;;5051217;28;20964;-68
2023/09/03 10:26:17;;;;;;;55.77;2.17;;;;;;;;;;5051324;28;20460;-68
2023/09/03 10:28:46;;;;;;;55.47;2.20;;;;;;;;;;5051540;28;20808;-69
2023/09/03 10:31:14;;;;;;;55.30;1.60;;;;;;;;;;5051550;28;20967;-69
2023/09/03 10:33:41;;;;;;;55.00;1.40;;;;;;;;;;5050888;28;20444;-69
2023/09/03 10:36:17;;;;;;;54.97;1.53;;;;;;;;;;5051083;28;20893;-70
2023/09/03 10:38:44;;;;;;;55.40;2.00;;;;;;;;;;5051230;28;20845;-71
2023/09/03 10:41:21;;;;;;;55.20;1.80;;;;;;;;;;5051548;28;20444;-69
2023/09/03 10:43:48;;;;;;;55.00;1.70;;;;;;;;;;5051017;28;20543;-69
2023/09/03 10:46:15;;;;;;;55.17;1.70;;;;;;;;;;5051048;28;20462;-71
2023/09/03 10:48:51;;;;;;;55.30;1.70;;;;;;;;;;5051151;28;20456;-70
2023/09/03 10:51:32;;;;;;;54.97;1.67;;;;;;;;;;5050997;28;20444;-70
2023/09/03 10:54:15;;;;;;;55.40;1.90;;;;;;;;;;5050781;28;20952;-70
2023/09/03 10:56:57;;;;;;;55.27;1.80;;;;;;;;;;5051269;28;20483;-70
2023/09/03 10:59:24;;;;;;;54.80;1.70;;;;;;;;;;5050775;28;20815;-71
2023/09/03 11:01:51;;;;;;;55.20;1.50;;;;;;;;;;5050903;28;20440;-72
2023/09/03 11:04:18;;;;;;;55.13;1.70;;;;;;;;;;5050921;28;20440;-70
2023/09/03 11:06:47;;;;;;;54.97;1.80;;;;;;;;;;5050945;28;20443;-72
2023/09/03 11:09:23;;;;;;;54.93;1.70;;;;;;;;;;5050929;28;20447;-70
2023/09/03 11:11:50;;;;;;;55.07;1.90;;;;;;;;;;5050465;28;20480;-70
2023/09/03 11:14:18;;;;;;;54.80;1.40;;;;;;;;;;5050738;28;20439;-70
2023/09/03 11:16:45;;;;;;;54.80;1.40;;;;;;;;;;5050717;28;20494;-70
2023/09/03 11:19:12;;;;;;;54.93;1.43;;;;;;;;;;5050646;28;20448;-70
2023/09/03 11:21:39;;;;;;;54.90;1.50;;;;;;;;;;5050447;28;20822;-70
2023/09/03 11:24:13;;;;;;;55.10;1.70;;;;;;;;;;5064546;28;20965;-71
2023/09/03 11:26:40;;;;;;;54.90;1.67;;;;;;;;;;5062538;28;20443;-72
2023/09/03 11:29:19;;;;;;;55.00;1.70;;;;;;;;;;5070869;28;20439;-70
2023/09/03 11:31:47;;;;;;;55.00;1.60;;;;;;;;;;5070609;28;20454;-71
2023/09/03 11:34:17;;;;;;;54.87;1.60;;;;;;;;;;5070594;28;20499;-70
2023/09/03 11:36:44;;;;;;;54.57;1.53;;;;;;;;;;5070194;28;20537;-70
2023/09/03 11:39:15;;;;;;;54.90;1.83;;;;;;;;;;5070867;28;20442;-70
2023/09/03 11:41:43;;;;;;;55.10;1.77;;;;;;;;;;5070733;28;20815;-70
2023/09/03 11:44:14;;;;;;;54.87;1.60;;;;;;;;;;5070397;28;20453;-73
2023/09/03 11:46:41;;;;;;;58.93;2.17;;;;;;;;;;5072505;28;20440;-70
2023/09/03 11:49:08;;;;;;;54.63;1.33;;;;;;;;;;5073355;28;20447;-73
2023/09/03 11:51:38;;;;;;;54.77;1.40;;;;;;;;;;5074586;28;20935;-72
2023/09/03 11:54:05;;;;;;;55.07;1.60;;;;;;;;;;5074334;28;20558;-71
2023/09/03 11:56:34;;;;;;;55.17;1.50;;;;;;;;;;5074320;28;20587;-73
2023/09/03 11:59:04;;;;;;;55.10;1.73;;;;;;;;;;5074347;28;20469;-71
2023/09/03 12:01:31;;;;;;;55.10;2.00;;;;;;;;;;5074167;28;20598;-71
2023/09/03 12:03:58;;;;;;;55.17;1.77;;;;;;;;;;5073892;28;20825;-71
2023/09/03 12:06:26;;;;;;;56.00;2.40;;;;;;;;;;5074164;28;20538;-71
2023/09/03 12:08:53;;;;;;;55.00;1.80;;;;;;;;;;5074316;28;20453;-74
2023/09/03 12:11:20;;;;;;;55.13;1.70;;;;;;;;;;5074087;28;20447;-69
2023/09/03 12:13:49;;;;;;;55.77;1.50;;;;;;;;;;5073839;28;20537;-69
2023/09/03 12:16:16;;;;;;;55.00;1.50;;;;;;;;;;5073769;28;20491;-70
2023/09/03 12:18:55;;;;;;;55.00;1.73;;;;;;;;;;5073812;28;20443;-71
2023/09/03 12:21:31;;;;;;;54.80;1.50;;;;;;;;;;5074027;28;20443;-70
2023/09/03 12:23:58;;;;;;;54.73;1.57;;;;;;;;;;5073758;28;20447;-70
2023/09/03 12:26:25;;;;;;;56.40;2.63;;;;;;;;;;5073735;28;20463;-71
2023/09/03 12:28:54;;;;;;;54.80;1.80;;;;;;;;;;5073621;28;20449;-70
2023/09/03 12:31:22;;;;;;;55.10;1.80;;;;;;;;;;5073632;28;20966;-71
2023/09/03 12:33:50;;;;;;;54.80;1.63;;;;;;;;;;5073550;28;20449;-70
2023/09/03 12:36:18;;;;;;;60.50;2.37;;;;;;;;;;5073266;28;20509;-70
2023/09/03 12:38:53;;;;;;;54.47;1.60;;;;;;;;;;5073629;28;20443;-71
2023/09/03 12:41:20;;;;;;;54.57;1.80;;;;;;;;;;5073426;28;20497;-72
2023/09/03 12:43:47;;;;;;;54.83;1.80;;;;;;;;;;5073159;28;20447;-71
2023/09/03 12:46:15;;;;;;;54.97;1.60;;;;;;;;;;5073675;28;20792;-71
2023/09/03 12:48:43;;;;;;;55.10;2.13;;;;;;;;;;5073612;28;20439;-70
2023/09/03 12:51:11;;;;;;;55.07;2.20;;;;;;;;;;5073294;28;20443;-72
2023/09/03 12:53:38;;;;;;;54.97;2.57;;;;;;;;;;5072888;28;20947;-70
2023/09/03 12:56:05;;;;;;;55.10;1.80;;;;;;;;;;5072987;28;20462;-70
2023/09/03 12:58:33;;;;;;;54.80;1.70;;;;;;;;;;5073474;28;20447;-70
2023/09/03 13:01:00;;;;;;;55.10;1.97;;;;;;;;;;5073187;28;20522;-70
2023/09/03 13:03:29;;;;;;;55.00;2.00;;;;;;;;;;5072782;28;20435;-70
2023/09/03 13:05:56;;;;;;;54.67;1.43;;;;;;;;;;5073098;28;20471;-70
2023/09/03 13:08:23;;;;;;;54.90;1.70;;;;;;;;;;5072954;28;20444;-70
2023/09/03 13:10:51;;;;;;;54.60;1.67;;;;;;;;;;5073205;28;20814;-71
2023/09/03 13:13:18;;;;;;;54.37;1.50;;;;;;;;;;5072789;28;20443;-70
2023/09/03 13:15:45;;;;;;;54.70;1.50;;;;;;;;;;5072895;28;20527;-70
2023/09/03 13:18:12;;;;;;;54.77;1.83;;;;;;;;;;5072783;28;21006;-70
2023/09/03 13:20:43;;;;;;;54.67;1.50;;;;;;;;;;5072731;28;20447;-70
2023/09/03 13:23:10;;;;;;;54.57;1.50;;;;;;;;;;5066599;28;20460;-70
2023/09/03 13:25:39;;;;;;;55.07;1.70;;;;;;;;;;5072503;28;20493;-70
2023/09/03 13:28:08;;;;;;;54.77;1.60;;;;;;;;;;5072811;28;20794;-70
2023/09/03 13:30:35;;;;;;;54.80;1.50;;;;;;;;;;5072745;28;20443;-70
2023/09/03 13:33:03;;;;;;;55.07;2.03;;;;;;;;;;5072823;28;20861;-70
2023/09/03 13:35:30;;;;;;;54.60;1.70;;;;;;;;;;5072230;28;21054;-70
2023/09/03 13:37:58;;;;;;;54.57;1.33;;;;;;;;;;5072289;28;20491;-72
2023/09/03 13:40:26;;;;;;;55.00;1.93;;;;;;;;;;5072592;28;20443;-71
2023/09/03 13:42:53;;;;;;;54.77;1.50;;;;;;;;;;5072047;28;20952;-70
2023/09/03 13:45:20;;;;;;;54.60;1.50;;;;;;;;;;5072558;28;20878;-70
2023/09/03 13:47:47;;;;;;;54.80;1.60;;;;;;;;;;5072199;28;20436;-70
2023/09/03 13:50:14;;;;;;;54.87;1.60;;;;;;;;;;5072128;28;20447;-70
2023/09/03 13:52:41;;;;;;;55.30;1.90;;;;;;;;;;5071927;28;20563;-72
2023/09/03 13:55:10;;;;;;;54.90;1.90;;;;;;;;;;5071967;28;20467;-71
2023/09/03 13:57:37;;;;;;;54.97;1.80;;;;;;;;;;5071956;28;20487;-71
2023/09/03 14:00:05;;;;;;;54.97;1.70;;;;;;;;;;5071922;28;20951;-70
2023/09/03 14:02:32;;;;;;;54.80;1.53;;;;;;;;;;5071511;28;20951;-71
2023/09/03 14:04:59;;;;;;;54.90;1.60;;;;;;;;;;5072009;28;20467;-69
2023/09/03 14:07:26;;;;;;;55.20;1.70;;;;;;;;;;5071759;28;20435;-71
2023/09/03 14:09:55;;;;;;;55.00;1.90;;;;;;;;;;5071302;28;20455;-70
2023/09/03 14:12:24;;;;;;;54.83;1.80;;;;;;;;;;5071448;28;20500;-73
2023/09/03 14:14:51;;;;;;;54.70;1.60;;;;;;;;;;5072064;28;20889;-70
2023/09/03 14:17:19;;;;;;;55.00;1.60;;;;;;;;;;5071339;28;20487;-70
2023/09/03 14:19:46;;;;;;;54.97;1.80;;;;;;;;;;5071769;28;20455;-70
2023/09/03 14:22:14;;;;;;;55.20;1.80;;;;;;;;;;5071385;28;20449;-70
2023/09/03 14:24:41;;;;;;;55.00;1.63;;;;;;;;;;5071503;28;20474;-70
2023/09/03 14:27:08;;;;;;;55.07;1.73;;;;;;;;;;5071274;28;20530;-70
2023/09/03 14:29:38;;;;;;;55.17;1.80;;;;;;;;;;5071235;28;20436;-70
2023/09/03 14:32:05;;;;;;;55.17;1.67;;;;;;;;;;5071280;28;20454;-71
2023/09/03 14:34:32;;;;;;;55.17;1.57;;;;;;;;;;5071088;28;20471;-70
2023/09/03 14:36:59;;;;;;;55.00;1.70;;;;;;;;;;5070960;28;20489;-70